createdAt,value
2023-03-16T00:03:43.366Z,2.60
2023-03-16T00:07:45.047Z,2.60
2023-03-16T00:11:46.657Z,2.60
2023-03-16T00:15:51.735Z,2.50
2023-03-16T00:19:57.322Z,2.40
2023-03-16T00:23:58.906Z,2.50
2023-03-16T00:28:03.646Z,2.40
2023-03-16T00:32:05.605Z,2.50
2023-03-16T00:36:09.357Z,2.50
2023-03-16T00:40:12.744Z,2.40
2023-03-16T00:44:14.313Z,2.20
2023-03-16T00:48:16.558Z,2.30
2023-03-16T00:52:18.210Z,2.30
2023-03-16T00:56:19.931Z,2.50
2023-03-16T01:00:22.031Z,2.50
2023-03-16T01:04:23.680Z,2.60
2023-03-16T01:08:27.869Z,2.70
2023-03-16T01:12:29.527Z,2.80
2023-03-16T01:16:33.847Z,2.90
2023-03-16T01:20:35.484Z,2.90
2023-03-16T01:24:37.929Z,2.90
2023-03-16T01:28:39.509Z,2.90
2023-03-16T01:32:41.747Z,2.80
2023-03-16T01:36:46.412Z,2.90
2023-03-16T01:40:51.952Z,2.90
2023-03-16T01:44:57.537Z,3.00
2023-03-16T01:49:08.132Z,3.00
2023-03-16T01:53:10.510Z,3.00
2023-03-16T01:57:12.084Z,3.00
2023-03-16T02:01:14.002Z,3.00
2023-03-16T02:05:19.553Z,2.90
2023-03-16T02:09:22.344Z,3.00
2023-03-16T02:13:24.596Z,3.00
2023-03-16T02:17:31.120Z,2.90
2023-03-16T02:21:44.859Z,2.90
2023-03-16T02:26:05.290Z,2.90
2023-03-16T02:30:07.036Z,3.00
2023-03-16T02:34:09.546Z,3.10
2023-03-16T02:38:11.166Z,3.20
2023-03-16T02:42:14.639Z,3.20
2023-03-16T02:46:17.110Z,3.30
2023-03-16T02:50:18.831Z,3.30
2023-03-16T02:54:20.510Z,3.30
2023-03-16T02:58:22.325Z,3.30
2023-03-16T03:02:24.022Z,3.30
2023-03-16T03:06:25.613Z,3.40
2023-03-16T03:10:27.847Z,3.30
2023-03-16T03:14:29.559Z,3.30
2023-03-16T03:18:33.463Z,3.30
2023-03-16T03:22:35.052Z,3.40
2023-03-16T03:26:38.142Z,3.50
2023-03-16T03:30:39.998Z,3.50
2023-03-16T03:34:42.517Z,3.40
2023-03-16T03:38:44.326Z,3.50
2023-03-16T03:42:45.992Z,3.50
2023-03-16T03:46:47.950Z,3.50
2023-03-16T03:50:49.627Z,3.50
2023-03-16T03:54:51.527Z,3.50
2023-03-16T03:58:53.252Z,3.50
2023-03-16T04:02:54.914Z,3.50
2023-03-16T04:06:56.760Z,3.50
2023-03-16T04:10:58.507Z,3.50
2023-03-16T04:15:00.430Z,3.50
2023-03-16T07:18:07.177Z,4.50
2023-03-16T07:22:09.532Z,4.70
2023-03-16T07:26:12.554Z,4.90
2023-03-16T07:30:27.479Z,4.90
2023-03-16T07:34:29.461Z,4.90
2023-03-16T07:38:32.570Z,4.90
2023-03-16T07:42:35.574Z,4.80
2023-03-16T07:46:37.280Z,4.80
2023-03-16T07:50:38.844Z,4.90
2023-03-16T07:54:40.896Z,5.00
2023-03-16T07:58:42.544Z,5.00
2023-03-16T08:02:44.563Z,5.10
2023-03-16T08:06:47.880Z,5.20
2023-03-16T08:10:52.169Z,5.20
2023-03-16T08:14:54.601Z,5.20
2023-03-16T08:18:57.144Z,5.30
2023-03-16T08:22:59.158Z,5.40
2023-03-16T08:27:01.039Z,5.40
2023-03-16T08:31:05.297Z,5.40
2023-03-16T08:35:08.256Z,5.50
2023-03-16T08:39:12.008Z,5.60
2023-03-16T08:43:17.978Z,5.80
2023-03-16T08:47:19.600Z,6.00
2023-03-16T08:51:23.439Z,6.20
2023-03-16T08:55:25.041Z,6.20
2023-03-16T08:59:30.120Z,6.40
2023-03-16T09:03:32.677Z,6.60
2023-03-16T09:07:36.282Z,6.60
2023-03-16T09:11:37.874Z,6.80
2023-03-16T09:15:39.470Z,6.80
2023-03-16T09:19:51.247Z,6.90
2023-03-16T09:23:54.841Z,7.00
2023-03-16T09:27:56.648Z,7.20
2023-03-16T09:31:58.638Z,7.10
2023-03-16T09:36:00.391Z,7.10
2023-03-16T09:40:06.800Z,7.20
2023-03-16T09:44:22.606Z,7.30
2023-03-16T09:48:25.676Z,7.60
2023-03-16T09:52:39.578Z,7.60
2023-03-16T09:56:42.200Z,7.60
2023-03-16T10:00:50.038Z,7.60
2023-03-16T10:05:00.876Z,7.70
2023-03-16T10:09:05.531Z,7.80
2023-03-16T10:13:14.380Z,8.00
2023-03-16T10:17:21.399Z,8.20
2023-03-16T10:21:24.517Z,8.40
2023-03-16T10:25:26.124Z,8.50
2023-03-16T10:29:30.318Z,8.90
2023-03-16T10:33:33.472Z,9.00
2023-03-16T10:37:35.731Z,9.10
2023-03-16T10:41:38.419Z,9.00
2023-03-16T10:45:42.560Z,9.20
2023-03-16T11:12:41.435Z,9.70
2023-03-16T13:41:00.482Z,12.30
2023-03-16T13:45:13.432Z,12.40
2023-03-16T13:49:15.351Z,12.60
2023-03-16T13:53:19.379Z,12.40
2023-03-16T13:57:22.314Z,12.50
2023-03-16T14:01:25.992Z,12.90
2023-03-16T14:05:30.312Z,12.90
2023-03-16T14:09:35.642Z,12.60
2023-03-16T14:13:39.184Z,12.60
2023-03-16T14:17:42.951Z,12.50
2023-03-16T14:21:45.918Z,12.80
2023-03-16T14:25:48.397Z,12.80
2023-03-16T14:30:16.169Z,13.00
2023-03-16T14:34:21.304Z,12.70
2023-03-16T14:38:29.060Z,13.10
2023-03-16T14:42:31.055Z,12.90
2023-03-16T14:46:42.398Z,13.00
2023-03-16T14:50:44.380Z,12.90
2023-03-16T14:54:46.610Z,13.10
2023-03-16T14:58:48.282Z,13.20
2023-03-16T15:03:02.487Z,13.00
2023-03-16T15:07:18.412Z,12.90
2023-03-16T15:11:21.560Z,12.80
2023-03-16T15:15:23.930Z,12.90
2023-03-16T15:19:25.682Z,12.80
2023-03-16T15:23:28.572Z,12.70
2023-03-16T15:27:35.617Z,12.60
2023-03-16T15:31:37.484Z,12.50
2023-03-16T15:35:39.924Z,12.60
2023-03-16T15:39:42.220Z,12.70
2023-03-16T15:43:45.878Z,12.90
2023-03-16T15:47:48.826Z,12.80
2023-03-16T15:51:50.397Z,12.90
2023-03-16T15:55:58.451Z,12.70
2023-03-16T16:00:00.199Z,12.70
2023-03-16T16:04:03.381Z,12.30
2023-03-16T16:08:05.170Z,12.30
2023-03-16T16:12:09.910Z,12.10
2023-03-16T16:16:15.361Z,12.10
2023-03-16T16:20:18.400Z,12.00
2023-03-16T16:24:20.064Z,11.90
2023-03-16T16:28:27.133Z,11.90
2023-03-16T16:32:28.755Z,11.90
2023-03-16T16:36:32.459Z,11.90
2023-03-16T16:40:37.821Z,11.90
2023-03-16T16:44:39.409Z,11.80
2023-03-16T16:48:46.435Z,11.70
2023-03-16T16:52:48.600Z,11.60
2023-03-16T16:56:51.977Z,11.50
2023-03-16T17:00:58.199Z,11.50
2023-03-16T17:04:59.882Z,11.40
2023-03-16T17:09:01.476Z,11.40
2023-03-16T17:13:03.554Z,11.20
2023-03-16T17:17:10.077Z,11.10
2023-03-16T17:21:16.057Z,10.90
2023-03-16T17:25:18.894Z,10.90
2023-03-16T17:29:42.656Z,10.70
2023-03-16T17:33:44.394Z,10.60
2023-03-16T17:37:47.777Z,10.50
2023-03-16T17:41:51.950Z,10.40
2023-03-16T17:45:53.829Z,10.30
2023-03-16T17:49:56.847Z,10.20
2023-03-16T17:53:58.465Z,10.10
2023-03-16T17:58:00.267Z,10.10
2023-03-16T18:02:01.972Z,10.00
2023-03-16T18:06:03.792Z,10.00
2023-03-16T18:10:06.226Z,9.90
2023-03-16T18:14:15.533Z,9.80
2023-03-16T18:18:21.205Z,9.80
2023-03-16T18:22:24.554Z,9.70
2023-03-16T18:26:27.498Z,9.70
2023-03-16T18:30:29.911Z,9.70
2023-03-16T18:34:33.603Z,9.60
2023-03-16T18:38:36.515Z,9.60
2023-03-16T18:42:38.424Z,9.60
2023-03-16T18:46:40.346Z,9.50
2023-03-16T18:50:43.657Z,9.40
2023-03-16T18:54:46.980Z,9.40
2023-03-16T18:58:49.264Z,9.30
2023-03-16T19:02:56.140Z,9.40
2023-03-16T19:06:57.846Z,9.30
2023-03-16T19:11:01.165Z,9.30
2023-03-16T19:15:11.918Z,9.20
2023-03-16T19:19:15.028Z,9.20
2023-03-16T19:23:18.831Z,9.20
2023-03-16T19:27:25.557Z,9.20
2023-03-16T19:31:28.209Z,9.30
2023-03-16T19:35:48.549Z,9.20
2023-03-16T19:39:51.618Z,9.20
2023-03-16T19:43:53.896Z,9.10
2023-03-16T19:47:55.501Z,9.10
2023-03-16T19:51:57.581Z,9.00
2023-03-16T19:56:01.559Z,9.00
2023-03-16T20:00:09.289Z,9.00
2023-03-16T20:04:14.710Z,9.00
2023-03-16T20:08:21.327Z,8.90
2023-03-16T20:12:23.046Z,8.90
2023-03-16T20:16:29.168Z,8.80
2023-03-16T20:20:34.404Z,8.80
2023-03-16T20:24:36.144Z,8.80
2023-03-16T20:28:38.032Z,8.80
2023-03-16T20:32:40.402Z,8.80
2023-03-16T20:36:45.876Z,8.70
2023-03-16T20:40:49.366Z,8.70
2023-03-16T20:44:54.292Z,8.70
2023-03-16T20:48:56.632Z,8.70
2023-03-16T20:52:58.262Z,8.80
2023-03-16T20:57:00.242Z,8.80
2023-03-16T21:01:03.631Z,8.80
2023-03-16T21:05:06.270Z,8.80
2023-03-16T21:09:09.584Z,8.80
2023-03-16T21:13:17.105Z,8.80
2023-03-16T21:17:26.515Z,8.80
2023-03-16T21:21:28.439Z,8.80
2023-03-16T21:25:31.912Z,8.90
2023-03-16T21:29:33.845Z,8.90
2023-03-16T21:33:37.377Z,8.90
2023-03-16T21:37:39.022Z,8.80
2023-03-16T21:41:40.943Z,9.00
2023-03-16T21:45:42.712Z,8.90
2023-03-16T21:49:44.643Z,9.00
2023-03-16T21:53:46.633Z,8.90
2023-03-16T21:57:48.838Z,8.90
2023-03-16T22:02:01.220Z,8.90
2023-03-16T22:06:03.505Z,8.90
2023-03-16T22:10:14.430Z,8.90
2023-03-16T22:14:16.591Z,8.90
2023-03-16T22:18:28.149Z,8.90
2023-03-16T22:22:32.188Z,9.00
2023-03-16T22:26:33.778Z,8.90
2023-03-16T22:30:35.817Z,8.90
2023-03-16T22:34:41.942Z,8.80
2023-03-16T22:38:43.843Z,8.90
2023-03-16T22:42:45.696Z,8.80
2023-03-16T22:46:47.324Z,8.80
2023-03-16T22:50:49.107Z,8.90
2023-03-16T22:54:50.791Z,9.00
2023-03-16T22:58:57.287Z,9.00
2023-03-16T23:02:59.008Z,9.10
2023-03-16T23:07:00.603Z,9.10
2023-03-16T23:11:02.619Z,9.10
2023-03-16T23:15:10.888Z,9.10
2023-03-16T23:19:25.045Z,9.10
2023-03-16T23:23:27.422Z,9.00
2023-03-16T23:27:30.359Z,9.00
2023-03-16T23:31:33.288Z,9.00
2023-03-16T23:35:38.526Z,8.80
2023-03-16T23:39:40.088Z,8.80
2023-03-16T23:43:42.663Z,8.90
2023-03-16T23:47:46.006Z,8.90
2023-03-16T23:51:47.998Z,8.80
2023-03-16T23:55:49.521Z,8.90
2023-03-16T23:59:51.050Z,8.80
